AirNav   Everest Fuels
 
 636 users online  

AL12 Kershaw Airport
Montgomery, Alabama, USA

GOING TO MONTGOMERY?


FAA INFORMATION EFFECTIVE 18 JUNE 2020

Location

FAA Identifier: AL12
Lat/Long: 32-21-38.8800N 086-07-14.6100W
32-21.648000N 086-07.243500W
32.3608000,-86.1207250
(estimated)
Elevation: 225 ft. / 68.6 m (surveyed)
Variation: 00W (1985)
From city: 10 miles E of MONTGOMERY, AL
Time zone: UTC -5 (UTC -6 during Standard Time)
Zip code: 36117

Airport Operations

Airport use: Private use. Permission required prior to landing
Activation date: 07/1977
Control tower: no
ARTCC: ATLANTA CENTER
FSS: ANNISTON FLIGHT SERVICE STATION
Attendance: UNATNDD
Wind indicator: yes
Segmented circle: no
Lights: ACTVT MIRL RWY 09/27 - 122.850.

Airport Communications

WX ASOS at MGM (14 nm W): PHONE 334-288-0445
  • ARPT MAY BE CONTACTED ON MULTICOM FREQ 122.85.

Nearby radio navigation aids

VOR radial/distance  VOR name  Freq  Var
MGMr048/13.1MONTGOMERY VORTAC112.1003E
TGEr250/24.0TUSKEGEE VOR/DME117.3002E

 
NDB name  Hdg/Dist  Freq  Var  ID
BLOOD003/31.836504WTOI - --- ..

Airport Services

Runway Information

Runway 9/27

Dimensions: 4600 x 50 ft. / 1402 x 15 m
Surface: asphalt
Runway edge lights: medium intensity
RUNWAY 9  RUNWAY 27
Traffic pattern: leftleft
Obstructions: none190 ft. tower, 5200 ft. from runway

Airport Ownership and Management from official FAA records

Ownership: Privately-owned
Owner: KERSHAW MFG COMPANY, INC
P.O. BOX 17340
MONTGOMERY, AL 36117
Phone 334-324-5672
Manager: ROYCE KERSHAW, JR.
2066 ALLENDALE RD.
MONTGOMERY, AL 36117
Phone 334-324-5672

Airport Operational Statistics

Aircraft based on the field: 1
Multi engine airplanes: 1
    

Additional Remarks

PLEASE CONTACT AIRPORT MANAGER AT INFO@KERSHAWAIRPORT.COM TO DISCUSS HANGER DEVELOPMENT AND TRANSIENT MEMBERSHIP OPPORTUNITIES.
FOR CD CTC ATLANTA ARTCC AT 770-210-7692.

Instrument Procedures

There are no published instrument procedures at AL12.

Some nearby airports with instrument procedures:

KMXF - Maxwell Air Force Base (12 nm W)
KMGM - Montgomery Regional Airport (Dannelly Field) (14 nm W)
08A - Wetumpka Municipal Airport (15 nm NW)
1A9 - Prattville Airport - Grouby Field (20 nm W)
06A - Moton Field Municipal Airport (23 nm E)
 
Loc | Ops | Rwys | IFR | FBO | Links
Com | Nav | Svcs | Stats | Notes

Continental Services
AirBoss

 
Area around AL12 (Kershaw Airport)
 
Road maps at: MapQuest Bing Google
 
Aerial photo
WARNING: Photo may not be current or correct
Aerial photo of AL12 (Kershaw Airport)
Photo by Jay Taffet / Gracen Aviation
Photo taken 07-Dec-2014
looking west.

Do you have a better or more recent aerial photo of Kershaw Airport that you would like to share? If so, please send us your photo.

 
Sectional chart

 
Airport distance calculator
Flying to Kershaw Airport? Find the distance to fly.

From to AL12

Sunrise and sunset
Times for 11-Jul-2020
 Local
(UTC-5)
 Zulu
(UTC)
Morning civil twilight05:2010:20
Sunrise05:4710:47
Sunset19:5300:53
Evening civil twilight20:2101:21

Current date and time
Zulu (UTC)  11-Jul-2020 12:20:00
Local (UTC-5)  11-Jul-2020 07:20:00
 
METAR
KMXF 
12nm W 
111156Z AUTO 00000KT 10SM CLR 26/22 A2997 RMK AO2 SLP150 T02590222 10263 20243 52018
KMGM 
15nm W 
111153Z 30004KT 10SM CLR 26/23 A2997 RMK AO2 SLP145 T02610233 10261 20239 51018
K1A9 
20nm W 
111155Z AUTO 36003KT 10SM CLR 25/24 A2996 RMK AO2 T02460239 10263 20235
TAF
KMXF 
12nm W 
111100Z 1111/1217 VRB06KT 9999 FEW030 QNH2990INS BECMG 1118/1119 34012G18KT 9999 SKC 510023 QNH2988INS BECMG 1123/1124 35006KT 9999 SKC QNH2987INS TX34/1121Z TN20/1211Z
KMGM 
15nm W 
111132Z 1112/1212 31005KT P6SM BKN250 FM111500 33012G19KT P6SM SCT250 FM120100 VRB03KT P6SM SKC
NOTAMs
Click for the latest NOTAMs
NOTAMs are issued by the DoD/FAA and will open in a separate window not controlled by AirNav.

 

 
 

Would you like to see your business listed on this page?

 If your business provides an interesting product or service to pilots, flight crews, aircraft, or users of the Kershaw Airport, you should consider listing it here.  To start the listing process, click on the button below
 
Add a business
 

Other Pages about Kershaw Airport

Update a link
 
Copyright © AirNav, LLC. All rights reserved. Privacy Policy  Contact